sensor_id;sensor_type;location;lat;lon;timestamp;temperature;humidity
52024;DHT22;38038;45.922;13.604;2024-02-15T00:00:37;4.30;99.90
52024;DHT22;38038;45.922;13.604;2024-02-15T00:03:03;4.30;99.90
52024;DHT22;38038;45.922;13.604;2024-02-15T00:05:32;4.20;99.90
52024;DHT22;38038;45.922;13.604;2024-02-15T00:08:00;4.20;99.90
52024;DHT22;38038;45.922;13.604;2024-02-15T00:10:25;4.20;99.90
52024;DHT22;38038;45.922;13.604;2024-02-15T00:12:51;4.30;99.90
52024;DHT22;38038;45.922;13.604;2024-02-15T00:15:17;4.30;99.90
52024;DHT22;38038;45.922;13.604;2024-02-15T00:17:45;4.30;99.90
52024;DHT22;38038;45.922;13.604;2024-02-15T00:20:12;4.40;99.90
52024;DHT22;38038;45.922;13.604;2024-02-15T00:22:39;4.40;99.90
52024;DHT22;38038;45.922;13.604;2024-02-15T00:25:06;4.40;99.90
52024;DHT22;38038;45.922;13.604;2024-02-15T00:27:35;4.50;99.90
52024;DHT22;38038;45.922;13.604;2024-02-15T00:30:01;4.60;99.90
52024;DHT22;38038;45.922;13.604;2024-02-15T00:32:27;4.60;99.90
52024;DHT22;38038;45.922;13.604;2024-02-15T00:34:53;4.60;99.90
52024;DHT22;38038;45.922;13.604;2024-02-15T00:37:19;4.70;99.90
52024;DHT22;38038;45.922;13.604;2024-02-15T00:39:45;4.60;99.90
52024;DHT22;38038;45.922;13.604;2024-02-15T00:42:10;4.50;99.90
52024;DHT22;38038;45.922;13.604;2024-02-15T00:44:36;4.50;99.90
52024;DHT22;38038;45.922;13.604;2024-02-15T00:47:02;4.40;99.90
52024;DHT22;38038;45.922;13.604;2024-02-15T00:49:28;4.20;99.90
52024;DHT22;38038;45.922;13.604;2024-02-15T00:51:54;4.10;99.90
52024;DHT22;38038;45.922;13.604;2024-02-15T00:54:20;4.10;99.90
52024;DHT22;38038;45.922;13.604;2024-02-15T00:56:45;4.20;99.90
52024;DHT22;38038;45.922;13.604;2024-02-15T00:59:11;4.40;99.90
52024;DHT22;38038;45.922;13.604;2024-02-15T01:01:37;4.40;99.90
52024;DHT22;38038;45.922;13.604;2024-02-15T01:04:04;4.30;99.90
52024;DHT22;38038;45.922;13.604;2024-02-15T01:06:29;4.30;99.90
52024;DHT22;38038;45.922;13.604;2024-02-15T01:08:55;4.30;99.90
52024;DHT22;38038;45.922;13.604;2024-02-15T01:11:22;4.20;99.90
52024;DHT22;38038;45.922;13.604;2024-02-15T01:13:49;4.30;99.90
52024;DHT22;38038;45.922;13.604;2024-02-15T01:16:16;4.30;99.90
52024;DHT22;38038;45.922;13.604;2024-02-15T01:18:42;4.30;99.90
52024;DHT22;38038;45.922;13.604;2024-02-15T01:21:07;4.20;99.90
52024;DHT22;38038;45.922;13.604;2024-02-15T01:23:34;4.30;99.90
52024;DHT22;38038;45.922;13.604;2024-02-15T01:26:02;4.40;99.90
52024;DHT22;38038;45.922;13.604;2024-02-15T01:28:28;4.30;99.90
52024;DHT22;38038;45.922;13.604;2024-02-15T01:30:54;4.40;99.90
52024;DHT22;38038;45.922;13.604;2024-02-15T01:33:20;4.30;99.90
52024;DHT22;38038;45.922;13.604;2024-02-15T01:35:45;4.30;99.90
52024;DHT22;38038;45.922;13.604;2024-02-15T01:38:11;4.30;99.90
52024;DHT22;38038;45.922;13.604;2024-02-15T01:40:38;4.40;99.90
52024;DHT22;38038;45.922;13.604;2024-02-15T01:43:04;4.50;99.90
52024;DHT22;38038;45.922;13.604;2024-02-15T01:45:30;4.60;99.90
52024;DHT22;38038;45.922;13.604;2024-02-15T01:47:57;4.50;99.90
52024;DHT22;38038;45.922;13.604;2024-02-15T01:50:23;4.40;99.90
52024;DHT22;38038;45.922;13.604;2024-02-15T01:52:52;4.40;99.90
52024;DHT22;38038;45.922;13.604;2024-02-15T01:55:20;4.40;99.90
52024;DHT22;38038;45.922;13.604;2024-02-15T01:57:48;4.50;99.90
52024;DHT22;38038;45.922;13.604;2024-02-15T02:00:18;4.50;99.90
52024;DHT22;38038;45.922;13.604;2024-02-15T02:02:45;4.50;99.90
52024;DHT22;38038;45.922;13.604;2024-02-15T02:05:11;4.50;99.90
52024;DHT22;38038;45.922;13.604;2024-02-15T02:07:38;4.50;99.90
52024;DHT22;38038;45.922;13.604;2024-02-15T02:10:04;4.60;99.90
52024;DHT22;38038;45.922;13.604;2024-02-15T02:12:31;4.60;99.90
52024;DHT22;38038;45.922;13.604;2024-02-15T02:14:57;4.70;99.90
52024;DHT22;38038;45.922;13.604;2024-02-15T02:17:22;4.70;99.90
52024;DHT22;38038;45.922;13.604;2024-02-15T02:19:48;4.70;99.90
52024;DHT22;38038;45.922;13.604;2024-02-15T02:22:18;4.80;99.90
52024;DHT22;38038;45.922;13.604;2024-02-15T02:25:04;4.60;99.90
52024;DHT22;38038;45.922;13.604;2024-02-15T02:27:32;4.70;99.90
52024;DHT22;38038;45.922;13.604;2024-02-15T02:29:58;4.60;99.90
52024;DHT22;38038;45.922;13.604;2024-02-15T02:32:25;4.50;99.90
52024;DHT22;38038;45.922;13.604;2024-02-15T02:34:52;4.60;99.90
52024;DHT22;38038;45.922;13.604;2024-02-15T02:37:25;4.40;99.90
52024;DHT22;38038;45.922;13.604;2024-02-15T02:39:51;4.30;99.90
52024;DHT22;38038;45.922;13.604;2024-02-15T02:42:17;4.30;99.90
52024;DHT22;38038;45.922;13.604;2024-02-15T02:44:43;4.20;99.90
52024;DHT22;38038;45.922;13.604;2024-02-15T02:47:09;4.20;99.90
52024;DHT22;38038;45.922;13.604;2024-02-15T02:49:38;4.30;99.90
52024;DHT22;38038;45.922;13.604;2024-02-15T02:52:04;4.40;99.90
52024;DHT22;38038;45.922;13.604;2024-02-15T02:54:29;4.60;99.90
52024;DHT22;38038;45.922;13.604;2024-02-15T02:56:55;4.70;99.90
52024;DHT22;38038;45.922;13.604;2024-02-15T02:59:21;4.60;99.90
52024;DHT22;38038;45.922;13.604;2024-02-15T03:01:47;4.70;99.90
52024;DHT22;38038;45.922;13.604;2024-02-15T03:04:15;4.70;99.90
52024;DHT22;38038;45.922;13.604;2024-02-15T03:06:45;4.80;99.90
52024;DHT22;38038;45.922;13.604;2024-02-15T03:09:12;4.70;99.90
52024;DHT22;38038;45.922;13.604;2024-02-15T03:11:40;4.70;99.90
52024;DHT22;38038;45.922;13.604;2024-02-15T03:14:06;4.60;99.90
52024;DHT22;38038;45.922;13.604;2024-02-15T03:16:32;4.60;99.90
52024;DHT22;38038;45.922;13.604;2024-02-15T03:18:58;4.50;99.90
52024;DHT22;38038;45.922;13.604;2024-02-15T03:21:23;4.50;99.90
52024;DHT22;38038;45.922;13.604;2024-02-15T03:23:50;4.40;99.90
52024;DHT22;38038;45.922;13.604;2024-02-15T03:26:15;4.50;99.90
52024;DHT22;38038;45.922;13.604;2024-02-15T03:28:41;4.40;99.90
52024;DHT22;38038;45.922;13.604;2024-02-15T03:31:07;4.50;99.90
52024;DHT22;38038;45.922;13.604;2024-02-15T03:33:33;4.30;99.90
52024;DHT22;38038;45.922;13.604;2024-02-15T03:36:00;4.40;99.90
52024;DHT22;38038;45.922;13.604;2024-02-15T03:38:26;4.30;99.90
52024;DHT22;38038;45.922;13.604;2024-02-15T03:40:55;4.30;99.90
52024;DHT22;38038;45.922;13.604;2024-02-15T03:43:21;4.30;99.90
52024;DHT22;38038;45.922;13.604;2024-02-15T03:45:46;4.20;99.90
52024;DHT22;38038;45.922;13.604;2024-02-15T03:48:12;4.20;99.90
52024;DHT22;38038;45.922;13.604;2024-02-15T03:50:38;4.40;99.90
52024;DHT22;38038;45.922;13.604;2024-02-15T03:53:04;4.40;99.90
52024;DHT22;38038;45.922;13.604;2024-02-15T03:55:30;4.30;99.90
52024;DHT22;38038;45.922;13.604;2024-02-15T03:57:55;4.40;99.90
52024;DHT22;38038;45.922;13.604;2024-02-15T04:00:23;4.50;99.90
52024;DHT22;38038;45.922;13.604;2024-02-15T04:02:50;4.60;99.90
52024;DHT22;38038;45.922;13.604;2024-02-15T04:05:16;4.70;99.90
52024;DHT22;38038;45.922;13.604;2024-02-15T04:07:44;4.80;99.90
52024;DHT22;38038;45.922;13.604;2024-02-15T04:10:10;4.80;99.90
52024;DHT22;38038;45.922;13.604;2024-02-15T04:12:35;4.80;99.90
52024;DHT22;38038;45.922;13.604;2024-02-15T04:15:02;4.60;99.90
52024;DHT22;38038;45.922;13.604;2024-02-15T04:17:32;4.50;99.90
52024;DHT22;38038;45.922;13.604;2024-02-15T04:20:00;4.50;99.90
52024;DHT22;38038;45.922;13.604;2024-02-15T04:22:26;4.50;99.90
52024;DHT22;38038;45.922;13.604;2024-02-15T04:24:52;4.40;99.90
52024;DHT22;38038;45.922;13.604;2024-02-15T04:27:18;4.30;99.90
52024;DHT22;38038;45.922;13.604;2024-02-15T04:29:46;4.10;99.90
52024;DHT22;38038;45.922;13.604;2024-02-15T04:32:12;4.00;99.90
52024;DHT22;38038;45.922;13.604;2024-02-15T04:34:39;4.00;99.90
52024;DHT22;38038;45.922;13.604;2024-02-15T04:37:05;4.00;99.90
52024;DHT22;38038;45.922;13.604;2024-02-15T04:39:37;3.90;99.90
52024;DHT22;38038;45.922;13.604;2024-02-15T04:42:03;3.80;99.90
52024;DHT22;38038;45.922;13.604;2024-02-15T04:44:31;3.80;99.90
52024;DHT22;38038;45.922;13.604;2024-02-15T04:47:01;3.80;99.90
52024;DHT22;38038;45.922;13.604;2024-02-15T04:49:27;3.80;99.90
52024;DHT22;38038;45.922;13.604;2024-02-15T04:51:55;3.80;99.90
52024;DHT22;38038;45.922;13.604;2024-02-15T04:54:20;3.90;99.90
52024;DHT22;38038;45.922;13.604;2024-02-15T04:56:47;3.90;99.90
52024;DHT22;38038;45.922;13.604;2024-02-15T04:59:13;3.90;99.90
52024;DHT22;38038;45.922;13.604;2024-02-15T05:01:41;3.90;99.90
52024;DHT22;38038;45.922;13.604;2024-02-15T05:04:11;4.00;99.90
52024;DHT22;38038;45.922;13.604;2024-02-15T05:06:37;4.00;99.90
52024;DHT22;38038;45.922;13.604;2024-02-15T05:09:04;3.90;99.90
52024;DHT22;38038;45.922;13.604;2024-02-15T05:11:39;4.00;99.90
52024;DHT22;38038;45.922;13.604;2024-02-15T05:14:07;4.10;99.90
52024;DHT22;38038;45.922;13.604;2024-02-15T05:16:33;4.00;99.90
52024;DHT22;38038;45.922;13.604;2024-02-15T05:18:59;3.90;99.90
52024;DHT22;38038;45.922;13.604;2024-02-15T05:21:25;3.80;99.90
52024;DHT22;38038;45.922;13.604;2024-02-15T05:23:51;3.80;99.90
52024;DHT22;38038;45.922;13.604;2024-02-15T05:26:18;3.70;99.90
52024;DHT22;38038;45.922;13.604;2024-02-15T05:28:49;3.80;99.90
52024;DHT22;38038;45.922;13.604;2024-02-15T05:31:19;3.80;99.90
52024;DHT22;38038;45.922;13.604;2024-02-15T05:33:46;3.80;99.90
52024;DHT22;38038;45.922;13.604;2024-02-15T05:36:20;3.70;99.90
52024;DHT22;38038;45.922;13.604;2024-02-15T05:38:51;3.70;99.90
52024;DHT22;38038;45.922;13.604;2024-02-15T05:41:18;3.60;99.90
52024;DHT22;38038;45.922;13.604;2024-02-15T05:43:45;3.50;99.90
52024;DHT22;38038;45.922;13.604;2024-02-15T05:46:12;3.50;99.90
52024;DHT22;38038;45.922;13.604;2024-02-15T05:48:38;3.30;99.90
52024;DHT22;38038;45.922;13.604;2024-02-15T05:51:05;3.40;99.90
52024;DHT22;38038;45.922;13.604;2024-02-15T05:53:31;3.40;99.90
52024;DHT22;38038;45.922;13.604;2024-02-15T05:56:07;3.30;99.90
52024;DHT22;38038;45.922;13.604;2024-02-15T05:58:34;3.40;99.90
52024;DHT22;38038;45.922;13.604;2024-02-15T06:01:01;3.40;99.90
52024;DHT22;38038;45.922;13.604;2024-02-15T06:03:31;3.50;99.90
52024;DHT22;38038;45.922;13.604;2024-02-15T06:05:59;3.70;99.90
52024;DHT22;38038;45.922;13.604;2024-02-15T06:08:27;3.80;99.90
52024;DHT22;38038;45.922;13.604;2024-02-15T06:10:55;3.90;99.90
52024;DHT22;38038;45.922;13.604;2024-02-15T06:13:22;3.80;99.90
52024;DHT22;38038;45.922;13.604;2024-02-15T06:15:48;3.90;99.90
52024;DHT22;38038;45.922;13.604;2024-02-15T06:18:24;4.00;99.90
52024;DHT22;38038;45.922;13.604;2024-02-15T06:20:53;4.20;99.90
52024;DHT22;38038;45.922;13.604;2024-02-15T06:23:19;4.30;99.90
52024;DHT22;38038;45.922;13.604;2024-02-15T06:25:51;4.30;99.90
52024;DHT22;38038;45.922;13.604;2024-02-15T06:28:18;4.30;99.90
52024;DHT22;38038;45.922;13.604;2024-02-15T06:31:03;4.40;99.90
52024;DHT22;38038;45.922;13.604;2024-02-15T06:33:47;4.50;99.90
52024;DHT22;38038;45.922;13.604;2024-02-15T06:36:31;4.60;99.90
52024;DHT22;38038;45.922;13.604;2024-02-15T06:39:15;4.80;99.90
52024;DHT22;38038;45.922;13.604;2024-02-15T06:42:00;4.90;99.90
52024;DHT22;38038;45.922;13.604;2024-02-15T06:44:26;5.10;99.90
52024;DHT22;38038;45.922;13.604;2024-02-15T06:46:52;5.20;99.90
52024;DHT22;38038;45.922;13.604;2024-02-15T06:49:18;5.30;99.90
52024;DHT22;38038;45.922;13.604;2024-02-15T06:51:44;5.40;99.90
52024;DHT22;38038;45.922;13.604;2024-02-15T06:54:12;5.40;99.90
52024;DHT22;38038;45.922;13.604;2024-02-15T06:56:38;5.50;99.90
52024;DHT22;38038;45.922;13.604;2024-02-15T06:59:05;5.60;99.90
52024;DHT22;38038;45.922;13.604;2024-02-15T07:01:31;5.70;99.90
52024;DHT22;38038;45.922;13.604;2024-02-15T07:03:59;5.90;99.90
52024;DHT22;38038;45.922;13.604;2024-02-15T07:06:25;6.00;99.90
52024;DHT22;38038;45.922;13.604;2024-02-15T07:08:52;6.00;99.90
52024;DHT22;38038;45.922;13.604;2024-02-15T07:11:20;5.90;99.90
52024;DHT22;38038;45.922;13.604;2024-02-15T07:13:54;6.00;99.90
52024;DHT22;38038;45.922;13.604;2024-02-15T07:16:23;6.10;99.90
52024;DHT22;38038;45.922;13.604;2024-02-15T07:18:49;6.20;99.90
52024;DHT22;38038;45.922;13.604;2024-02-15T07:21:15;6.30;99.90
52024;DHT22;38038;45.922;13.604;2024-02-15T07:23:44;6.50;99.90
52024;DHT22;38038;45.922;13.604;2024-02-15T07:26:11;6.60;99.90
52024;DHT22;38038;45.922;13.604;2024-02-15T07:28:38;6.80;99.90
52024;DHT22;38038;45.922;13.604;2024-02-15T07:31:04;6.80;99.90
52024;DHT22;38038;45.922;13.604;2024-02-15T07:33:30;6.60;99.90
52024;DHT22;38038;45.922;13.604;2024-02-15T07:35:55;6.60;99.90
52024;DHT22;38038;45.922;13.604;2024-02-15T07:38:22;6.80;99.90
52024;DHT22;38038;45.922;13.604;2024-02-15T07:40:49;6.90;99.90
52024;DHT22;38038;45.922;13.604;2024-02-15T07:43:15;6.90;99.90
52024;DHT22;38038;45.922;13.604;2024-02-15T07:45:41;6.80;99.90
52024;DHT22;38038;45.922;13.604;2024-02-15T07:48:07;6.70;99.90
52024;DHT22;38038;45.922;13.604;2024-02-15T07:50:33;6.70;99.90
52024;DHT22;38038;45.922;13.604;2024-02-15T07:52:59;6.90;99.90
52024;DHT22;38038;45.922;13.604;2024-02-15T07:55:24;7.00;99.90
52024;DHT22;38038;45.922;13.604;2024-02-15T07:57:53;7.20;99.90
52024;DHT22;38038;45.922;13.604;2024-02-15T08:00:19;7.20;99.90
52024;DHT22;38038;45.922;13.604;2024-02-15T08:02:45;7.40;99.90
52024;DHT22;38038;45.922;13.604;2024-02-15T08:05:12;7.50;99.90
52024;DHT22;38038;45.922;13.604;2024-02-15T08:07:43;7.70;99.90
52024;DHT22;38038;45.922;13.604;2024-02-15T08:10:10;7.80;99.90
52024;DHT22;38038;45.922;13.604;2024-02-15T08:12:43;7.90;99.90
52024;DHT22;38038;45.922;13.604;2024-02-15T08:15:09;7.90;99.90
52024;DHT22;38038;45.922;13.604;2024-02-15T08:17:42;8.00;99.90
52024;DHT22;38038;45.922;13.604;2024-02-15T08:20:12;8.10;99.90
52024;DHT22;38038;45.922;13.604;2024-02-15T08:22:39;8.10;99.90
52024;DHT22;38038;45.922;13.604;2024-02-15T08:25:12;8.20;99.90
52024;DHT22;38038;45.922;13.604;2024-02-15T08:27:39;8.30;99.90
52024;DHT22;38038;45.922;13.604;2024-02-15T08:30:10;8.30;99.90
52024;DHT22;38038;45.922;13.604;2024-02-15T08:32:37;8.40;99.90
52024;DHT22;38038;45.922;13.604;2024-02-15T08:35:05;8.50;99.90
52024;DHT22;38038;45.922;13.604;2024-02-15T08:37:31;8.60;99.90
52024;DHT22;38038;45.922;13.604;2024-02-15T08:39:59;8.60;99.90
52024;DHT22;38038;45.922;13.604;2024-02-15T08:42:25;8.70;99.90
52024;DHT22;38038;45.922;13.604;2024-02-15T08:44:52;8.80;99.90
52024;DHT22;38038;45.922;13.604;2024-02-15T08:47:17;8.80;99.90
52024;DHT22;38038;45.922;13.604;2024-02-15T08:49:43;8.90;99.90
52024;DHT22;38038;45.922;13.604;2024-02-15T08:52:09;8.90;99.90
52024;DHT22;38038;45.922;13.604;2024-02-15T08:54:36;8.90;99.90
52024;DHT22;38038;45.922;13.604;2024-02-15T08:57:04;9.00;99.90
52024;DHT22;38038;45.922;13.604;2024-02-15T08:59:30;9.10;99.90
52024;DHT22;38038;45.922;13.604;2024-02-15T09:01:56;9.10;99.90
52024;DHT22;38038;45.922;13.604;2024-02-15T09:04:24;9.10;99.90
52024;DHT22;38038;45.922;13.604;2024-02-15T09:06:51;9.10;99.90
52024;DHT22;38038;45.922;13.604;2024-02-15T09:09:17;9.30;99.90
52024;DHT22;38038;45.922;13.604;2024-02-15T09:11:43;9.40;99.90
52024;DHT22;38038;45.922;13.604;2024-02-15T09:14:09;9.50;99.90
52024;DHT22;38038;45.922;13.604;2024-02-15T09:16:37;9.60;99.90
52024;DHT22;38038;45.922;13.604;2024-02-15T09:19:05;9.70;99.90
52024;DHT22;38038;45.922;13.604;2024-02-15T09:21:31;9.70;99.90
52024;DHT22;38038;45.922;13.604;2024-02-15T09:23:59;9.80;99.90
52024;DHT22;38038;45.922;13.604;2024-02-15T09:26:25;9.80;99.90
52024;DHT22;38038;45.922;13.604;2024-02-15T09:28:51;9.80;99.90
52024;DHT22;38038;45.922;13.604;2024-02-15T09:31:19;9.80;99.90
52024;DHT22;38038;45.922;13.604;2024-02-15T09:33:44;9.90;99.90
52024;DHT22;38038;45.922;13.604;2024-02-15T09:36:11;10.00;99.90
52024;DHT22;38038;45.922;13.604;2024-02-15T09:38:37;10.20;99.90
52024;DHT22;38038;45.922;13.604;2024-02-15T09:41:03;10.20;99.90
52024;DHT22;38038;45.922;13.604;2024-02-15T09:43:32;10.30;99.90
52024;DHT22;38038;45.922;13.604;2024-02-15T09:45:58;10.30;99.90
52024;DHT22;38038;45.922;13.604;2024-02-15T09:48:25;10.40;99.90
52024;DHT22;38038;45.922;13.604;2024-02-15T09:50:53;10.40;99.90
52024;DHT22;38038;45.922;13.604;2024-02-15T09:53:23;10.40;99.90
52024;DHT22;38038;45.922;13.604;2024-02-15T09:55:53;10.50;99.90
52024;DHT22;38038;45.922;13.604;2024-02-15T09:58:20;10.60;99.90
52024;DHT22;38038;45.922;13.604;2024-02-15T10:00:48;10.70;99.90
52024;DHT22;38038;45.922;13.604;2024-02-15T10:03:18;10.80;99.90
52024;DHT22;38038;45.922;13.604;2024-02-15T10:05:51;10.90;99.90
52024;DHT22;38038;45.922;13.604;2024-02-15T10:08:16;10.80;99.90
52024;DHT22;38038;45.922;13.604;2024-02-15T10:10:43;10.90;99.90
52024;DHT22;38038;45.922;13.604;2024-02-15T10:13:13;11.00;99.90
52024;DHT22;38038;45.922;13.604;2024-02-15T10:15:39;11.00;99.90
52024;DHT22;38038;45.922;13.604;2024-02-15T10:18:10;11.10;99.90
52024;DHT22;38038;45.922;13.604;2024-02-15T10:20:41;11.10;99.90
52024;DHT22;38038;45.922;13.604;2024-02-15T10:23:11;11.10;99.90
52024;DHT22;38038;45.922;13.604;2024-02-15T10:25:40;11.20;99.90
52024;DHT22;38038;45.922;13.604;2024-02-15T10:28:10;11.20;99.90
52024;DHT22;38038;45.922;13.604;2024-02-15T10:30:42;11.30;99.90
52024;DHT22;38038;45.922;13.604;2024-02-15T10:33:26;11.30;99.90
52024;DHT22;38038;45.922;13.604;2024-02-15T10:36:10;11.30;99.90
52024;DHT22;38038;45.922;13.604;2024-02-15T10:38:39;11.40;99.90
52024;DHT22;38038;45.922;13.604;2024-02-15T10:41:06;11.50;99.90
52024;DHT22;38038;45.922;13.604;2024-02-15T10:43:36;11.60;99.90
52024;DHT22;38038;45.922;13.604;2024-02-15T10:46:04;11.60;99.90
52024;DHT22;38038;45.922;13.604;2024-02-15T10:48:33;11.70;99.90
52024;DHT22;38038;45.922;13.604;2024-02-15T10:50:59;11.70;99.90
52024;DHT22;38038;45.922;13.604;2024-02-15T10:53:27;11.80;99.90
52024;DHT22;38038;45.922;13.604;2024-02-15T10:58:49;11.90;99.90
52024;DHT22;38038;45.922;13.604;2024-02-15T11:01:17;11.90;99.90
52024;DHT22;38038;45.922;13.604;2024-02-15T11:03:59;12.00;99.90
52024;DHT22;38038;45.922;13.604;2024-02-15T11:06:27;12.00;99.90
52024;DHT22;38038;45.922;13.604;2024-02-15T11:08:55;12.10;99.90
52024;DHT22;38038;45.922;13.604;2024-02-15T11:11:21;12.20;99.90
52024;DHT22;38038;45.922;13.604;2024-02-15T11:13:48;12.20;99.90
52024;DHT22;38038;45.922;13.604;2024-02-15T11:16:41;12.30;99.90
52024;DHT22;38038;45.922;13.604;2024-02-15T11:19:07;12.30;99.90
52024;DHT22;38038;45.922;13.604;2024-02-15T11:21:54;12.40;99.90
52024;DHT22;38038;45.922;13.604;2024-02-15T11:24:28;12.40;99.90
52024;DHT22;38038;45.922;13.604;2024-02-15T11:27:02;12.50;99.90
52024;DHT22;38038;45.922;13.604;2024-02-15T11:29:48;12.50;99.90
52024;DHT22;38038;45.922;13.604;2024-02-15T11:32:34;12.60;99.90
52024;DHT22;38038;45.922;13.604;2024-02-15T11:35:13;12.70;99.90
52024;DHT22;38038;45.922;13.604;2024-02-15T11:40:15;12.70;99.90
52024;DHT22;38038;45.922;13.604;2024-02-15T11:42:43;12.60;99.90
52024;DHT22;38038;45.922;13.604;2024-02-15T11:45:09;12.60;99.90
52024;DHT22;38038;45.922;13.604;2024-02-15T11:47:39;12.80;99.90
52024;DHT22;38038;45.922;13.604;2024-02-15T11:50:09;12.90;99.90
52024;DHT22;38038;45.922;13.604;2024-02-15T11:52:44;12.90;99.90
52024;DHT22;38038;45.922;13.604;2024-02-15T11:55:11;13.00;99.90
52024;DHT22;38038;45.922;13.604;2024-02-15T11:57:39;12.90;99.90
52024;DHT22;38038;45.922;13.604;2024-02-15T12:00:21;12.90;99.90
52024;DHT22;38038;45.922;13.604;2024-02-15T12:03:06;13.00;99.90
52024;DHT22;38038;45.922;13.604;2024-02-15T12:05:50;13.10;99.90
52024;DHT22;38038;45.922;13.604;2024-02-15T12:08:35;13.10;99.90
52024;DHT22;38038;45.922;13.604;2024-02-15T12:11:19;13.20;99.90
52024;DHT22;38038;45.922;13.604;2024-02-15T12:14:04;13.30;99.90
52024;DHT22;38038;45.922;13.604;2024-02-15T12:16:59;13.30;99.90
52024;DHT22;38038;45.922;13.604;2024-02-15T12:19:43;13.20;99.90
52024;DHT22;38038;45.922;13.604;2024-02-15T12:22:09;13.30;99.90
52024;DHT22;38038;45.922;13.604;2024-02-15T12:24:35;13.50;99.90
52024;DHT22;38038;45.922;13.604;2024-02-15T12:27:01;13.50;99.90
52024;DHT22;38038;45.922;13.604;2024-02-15T12:29:31;13.50;99.90
52024;DHT22;38038;45.922;13.604;2024-02-15T12:31:58;13.50;99.90
52024;DHT22;38038;45.922;13.604;2024-02-15T12:34:24;13.30;99.90
52024;DHT22;38038;45.922;13.604;2024-02-15T12:36:50;13.30;99.90
52024;DHT22;38038;45.922;13.604;2024-02-15T12:39:24;13.30;99.90
52024;DHT22;38038;45.922;13.604;2024-02-15T12:41:50;13.40;99.90
52024;DHT22;38038;45.922;13.604;2024-02-15T12:44:17;13.50;99.90
52024;DHT22;38038;45.922;13.604;2024-02-15T12:46:43;13.50;99.90
52024;DHT22;38038;45.922;13.604;2024-02-15T12:54:50;13.40;99.90
52024;DHT22;38038;45.922;13.604;2024-02-15T12:57:16;13.40;99.90
52024;DHT22;38038;45.922;13.604;2024-02-15T12:59:42;13.50;99.90
52024;DHT22;38038;45.922;13.604;2024-02-15T13:02:07;13.50;99.90
52024;DHT22;38038;45.922;13.604;2024-02-15T13:04:33;13.40;99.90
52024;DHT22;38038;45.922;13.604;2024-02-15T13:06:59;13.50;99.90
52024;DHT22;38038;45.922;13.604;2024-02-15T13:09:24;13.50;99.90
52024;DHT22;38038;45.922;13.604;2024-02-15T13:11:50;13.50;99.90
52024;DHT22;38038;45.922;13.604;2024-02-15T13:14:19;13.50;99.90
52024;DHT22;38038;45.922;13.604;2024-02-15T13:16:46;13.50;99.90
52024;DHT22;38038;45.922;13.604;2024-02-15T13:19:14;13.60;99.90
52024;DHT22;38038;45.922;13.604;2024-02-15T13:21:40;13.50;99.60
52024;DHT22;38038;45.922;13.604;2024-02-15T13:24:05;13.60;99.30
52024;DHT22;38038;45.922;13.604;2024-02-15T13:26:31;13.60;99.70
52024;DHT22;38038;45.922;13.604;2024-02-15T13:28:59;13.60;99.90
52024;DHT22;38038;45.922;13.604;2024-02-15T13:31:25;13.50;99.90
52024;DHT22;38038;45.922;13.604;2024-02-15T13:33:52;13.60;99.90
52024;DHT22;38038;45.922;13.604;2024-02-15T13:36:18;13.40;99.90
52024;DHT22;38038;45.922;13.604;2024-02-15T13:38:45;13.40;99.90
52024;DHT22;38038;45.922;13.604;2024-02-15T13:41:12;13.30;99.90
52024;DHT22;38038;45.922;13.604;2024-02-15T13:43:38;13.30;99.90
52024;DHT22;38038;45.922;13.604;2024-02-15T13:46:06;13.30;99.90
52024;DHT22;38038;45.922;13.604;2024-02-15T13:48:32;13.40;99.90
52024;DHT22;38038;45.922;13.604;2024-02-15T13:50:58;13.30;99.90
52024;DHT22;38038;45.922;13.604;2024-02-15T13:53:23;13.40;99.90
52024;DHT22;38038;45.922;13.604;2024-02-15T13:55:50;13.50;99.90
52024;DHT22;38038;45.922;13.604;2024-02-15T13:58:17;13.50;99.90
52024;DHT22;38038;45.922;13.604;2024-02-15T14:00:44;13.60;99.90
52024;DHT22;38038;45.922;13.604;2024-02-15T14:03:11;13.60;99.90
52024;DHT22;38038;45.922;13.604;2024-02-15T14:05:36;13.50;99.90
52024;DHT22;38038;45.922;13.604;2024-02-15T14:08:05;13.50;99.90
52024;DHT22;38038;45.922;13.604;2024-02-15T14:10:32;13.50;99.90
52024;DHT22;38038;45.922;13.604;2024-02-15T14:13:00;13.40;99.90
52024;DHT22;38038;45.922;13.604;2024-02-15T14:15:32;13.30;99.90
52024;DHT22;38038;45.922;13.604;2024-02-15T14:18:08;13.40;99.90
52024;DHT22;38038;45.922;13.604;2024-02-15T14:20:39;13.50;99.90
52024;DHT22;38038;45.922;13.604;2024-02-15T14:23:07;13.50;99.90
52024;DHT22;38038;45.922;13.604;2024-02-15T14:25:39;13.60;99.90
52024;DHT22;38038;45.922;13.604;2024-02-15T14:28:05;13.60;99.90
52024;DHT22;38038;45.922;13.604;2024-02-15T14:30:36;13.60;99.90
52024;DHT22;38038;45.922;13.604;2024-02-15T14:33:20;13.60;99.90
52024;DHT22;38038;45.922;13.604;2024-02-15T14:35:48;13.50;99.90
52024;DHT22;38038;45.922;13.604;2024-02-15T14:38:14;13.50;99.90
52024;DHT22;38038;45.922;13.604;2024-02-15T14:40:45;13.50;99.90
52024;DHT22;38038;45.922;13.604;2024-02-15T14:43:13;13.50;99.90
52024;DHT22;38038;45.922;13.604;2024-02-15T14:45:40;13.50;99.90
52024;DHT22;38038;45.922;13.604;2024-02-15T14:48:09;13.60;99.90
52024;DHT22;38038;45.922;13.604;2024-02-15T14:50:44;13.60;99.90
52024;DHT22;38038;45.922;13.604;2024-02-15T14:53:11;13.70;99.90
52024;DHT22;38038;45.922;13.604;2024-02-15T14:55:38;13.70;99.90
52024;DHT22;38038;45.922;13.604;2024-02-15T14:58:07;13.50;99.90
52024;DHT22;38038;45.922;13.604;2024-02-15T15:00:36;13.60;99.90
52024;DHT22;38038;45.922;13.604;2024-02-15T15:03:03;13.60;99.90
52024;DHT22;38038;45.922;13.604;2024-02-15T15:05:29;13.40;99.90
52024;DHT22;38038;45.922;13.604;2024-02-15T15:08:13;13.30;99.90
52024;DHT22;38038;45.922;13.604;2024-02-15T15:10:57;13.20;99.90
52024;DHT22;38038;45.922;13.604;2024-02-15T15:13:41;13.10;99.90
52024;DHT22;38038;45.922;13.604;2024-02-15T15:16:07;13.10;99.90
52024;DHT22;38038;45.922;13.604;2024-02-15T15:18:33;13.10;99.90
52024;DHT22;38038;45.922;13.604;2024-02-15T15:21:02;13.10;99.90
52024;DHT22;38038;45.922;13.604;2024-02-15T15:23:28;13.10;99.90
52024;DHT22;38038;45.922;13.604;2024-02-15T15:25:57;13.00;99.90
52024;DHT22;38038;45.922;13.604;2024-02-15T15:28:24;12.90;99.90
52024;DHT22;38038;45.922;13.604;2024-02-15T15:30:49;12.90;99.90
52024;DHT22;38038;45.922;13.604;2024-02-15T15:33:17;12.90;99.90
52024;DHT22;38038;45.922;13.604;2024-02-15T15:35:43;12.80;99.90
52024;DHT22;38038;45.922;13.604;2024-02-15T15:38:10;12.80;99.90
52024;DHT22;38038;45.922;13.604;2024-02-15T15:40:35;12.80;99.90
52024;DHT22;38038;45.922;13.604;2024-02-15T15:43:01;12.70;99.90